Time;durP1;ratioP1;P1;durP2;ratioP2;P2;SDS_P1;SDS_P2;PMS_P1;PMS_P2;Temp;Humidity;BMP_temperature;BMP_pressure;BME280_temperature;BME280_humidity;BME280_pressure;Samples;Min_cycle;Max_cycle;Signal;HPM_P1;HPM_P2
2023/07/19 00:01:36;;;;;;;4.85;2.33;;;;;;;16.97;72.72;101590.53;6111494;19;20488;-70
2023/07/19 00:03:41;;;;;;;4.95;2.50;;;;;;;16.97;72.40;101591.38;6110171;19;20010;-71
2023/07/19 00:05:46;;;;;;;3.10;1.95;;;;;;;16.95;72.74;101590.59;6109716;19;20042;-70
2023/07/19 00:07:52;;;;;;;5.07;2.47;;;;;;;16.98;73.12;101595.78;6110670;19;20011;-70
2023/07/19 00:09:58;;;;;;;3.67;2.10;;;;;;;16.96;72.77;101591.47;6110786;19;20475;-71
2023/07/19 00:12:03;;;;;;;6.45;2.30;;;;;;;16.93;72.56;101589.84;6110208;19;20010;-71
2023/07/19 00:14:11;;;;;;;4.68;2.10;;;;;;;16.93;72.24;101588.97;6110802;19;20002;-71
2023/07/19 00:16:19;;;;;;;5.60;2.40;;;;;;;16.89;72.59;101580.34;6110439;19;20065;-70
2023/07/19 00:18:24;;;;;;;5.18;2.30;;;;;;;16.92;73.62;101580.16;6111074;19;20010;-73
2023/07/19 00:20:29;;;;;;;3.53;2.10;;;;;;;16.91;72.33;101583.78;6110422;19;20055;-72
2023/07/19 00:22:35;;;;;;;5.47;2.22;;;;;;;16.94;73.04;101583.59;6110030;19;20031;-73
2023/07/19 00:24:40;;;;;;;3.83;2.40;;;;;;;16.97;74.42;101570.13;6111388;19;20471;-73
2023/07/19 00:26:48;;;;;;;4.32;2.20;;;;;;;17.00;73.24;101577.09;6110685;19;20007;-71
2023/07/19 00:28:53;;;;;;;4.60;2.20;;;;;;;17.00;72.48;101564.66;6108930;19;20007;-71
2023/07/19 00:31:04;;;;;;;5.13;2.15;;;;;;;17.02;72.55;101569.91;6110310;19;20035;-71
2023/07/19 00:33:14;;;;;;;3.92;2.00;;;;;;;16.99;72.92;101570.06;6107585;19;20019;-71
2023/07/19 00:35:19;;;;;;;4.75;2.35;;;;;;;17.01;73.11;101566.38;6092304;19;20014;-71
2023/07/19 00:37:24;;;;;;;4.88;2.30;;;;;;;17.02;71.89;101565.44;6114894;19;20047;-71
2023/07/19 00:39:29;;;;;;;4.35;2.15;;;;;;;17.01;71.26;101562.84;6116040;19;20086;-71
2023/07/19 00:41:31;;;;;;;3.17;2.17;;;;;;;16.99;71.15;101560.28;6117271;19;20030;-71
2023/07/19 00:43:37;;;;;;;2.25;1.80;;;;;;;17.00;72.70;101554.03;6115677;19;20006;-71
2023/07/19 00:45:48;;;;;;;4.60;2.55;;;;;;;17.00;71.86;101558.50;6115659;19;20335;-71
2023/07/19 00:47:53;;;;;;;3.10;2.03;;;;;;;17.04;72.59;101562.69;6113716;19;20463;-71
2023/07/19 00:50:01;;;;;;;4.75;2.22;;;;;;;17.04;72.81;101550.28;6115241;19;20017;-71
2023/07/19 00:52:08;;;;;;;3.60;2.35;;;;;;;17.06;72.77;101552.81;6115920;19;20019;-70
2023/07/19 00:54:13;;;;;;;3.88;2.10;;;;;;;17.05;73.15;101553.78;6114485;19;20018;-71
2023/07/19 00:56:18;;;;;;;3.30;2.10;;;;;;;17.01;72.29;101558.41;6114369;19;20094;-71
2023/07/19 00:58:25;;;;;;;2.50;2.30;;;;;;;17.05;73.07;101549.31;6115287;19;20002;-73
2023/07/19 01:00:31;;;;;;;3.35;1.95;;;;;;;17.08;73.15;101553.59;6113354;19;20391;-72
2023/07/19 01:02:39;;;;;;;4.75;2.30;;;;;;;17.06;72.79;101553.72;6113496;19;20070;-72
2023/07/19 01:04:53;;;;;;;3.70;2.08;;;;;;;17.07;73.00;101547.44;6113937;19;20472;-72
2023/07/19 01:07:01;;;;;;;3.72;2.00;;;;;;;17.08;73.95;101550.94;6113019;19;20015;-73
2023/07/19 01:09:07;;;;;;;5.10;2.40;;;;;;;17.09;73.25;101540.25;6109799;19;20007;-71
2023/07/19 01:11:12;;;;;;;4.45;2.17;;;;;;;17.06;73.14;101550.16;6108451;19;20010;-72
2023/07/19 01:13:17;;;;;;;5.65;2.30;;;;;;;17.05;72.79;101551.13;6109346;19;20018;-72
2023/07/19 01:15:22;;;;;;;4.35;2.05;;;;;;;17.06;72.74;101544.84;6114349;19;20337;-71
2023/07/19 01:17:27;;;;;;;3.70;2.30;;;;;;;17.05;73.26;101541.34;6115480;19;20486;-71
2023/07/19 01:19:32;;;;;;;5.43;2.15;;;;;;;17.07;72.73;101544.78;6109977;19;20011;-71
2023/07/19 01:21:38;;;;;;;5.22;2.30;;;;;;;17.06;72.28;101542.19;6111587;19;20023;-71
2023/07/19 01:23:46;;;;;;;5.38;2.28;;;;;;;17.06;72.13;101536.91;6113870;19;20086;-72
2023/07/19 01:25:51;;;;;;;4.07;2.30;;;;;;;17.08;73.12;101537.66;6115134;19;20006;-70
2023/07/19 01:27:56;;;;;;;4.43;2.30;;;;;;;17.03;72.04;101535.28;6113616;19;20372;-71
2023/07/19 01:30:01;;;;;;;2.63;2.00;;;;;;;17.06;73.61;101535.13;6114822;19;20094;-71
2023/07/19 01:32:08;;;;;;;4.10;2.10;;;;;;;17.05;73.40;101533.38;6113143;19;20010;-71
2023/07/19 01:34:13;;;;;;;4.85;2.20;;;;;;;17.07;72.06;101536.81;6113748;19;20018;-72
2023/07/19 01:36:18;;;;;;;3.60;2.10;;;;;;;17.05;71.87;101540.50;6112153;19;20036;-71
2023/07/19 01:38:23;;;;;;;3.10;1.98;;;;;;;17.04;72.44;101542.31;6114999;19;20011;-73
2023/07/19 01:40:31;;;;;;;3.20;2.03;;;;;;;17.06;71.87;101540.44;6107075;19;20015;-71
2023/07/19 01:42:33;;;;;;;4.13;2.08;;;;;;;17.11;71.92;101537.50;6113486;19;20526;-71
2023/07/19 01:44:39;;;;;;;;;;;;;;;17.11;72.02;101540.16;6115164;19;20014;-70
2023/07/19 01:46:45;;;;;;;5.13;2.22;;;;;;;17.11;73.10;101533.06;6111700;19;19922;-71
2023/07/19 01:48:53;;;;;;;5.72;2.10;;;;;;;17.11;73.41;101533.06;6112126;19;20010;-72
2023/07/19 01:50:58;;;;;;;4.32;2.30;;;;;;;17.14;73.33;101525.84;6094499;19;20022;-71
2023/07/19 01:53:03;;;;;;;4.05;2.13;;;;;;;17.14;74.57;101529.38;6115139;19;20074;-71
2023/07/19 01:55:10;;;;;;;5.55;2.22;;;;;;;17.13;73.10;101530.31;6111637;19;20511;-72
2023/07/19 01:57:17;;;;;;;3.28;2.30;;;;;;;17.11;73.34;101527.75;6114691;19;20575;-72
2023/07/19 01:59:20;;;;;;;4.85;2.40;;;;;;;17.10;73.14;101536.63;6113911;19;20026;-70
2023/07/19 02:01:25;;;;;;;5.35;2.65;;;;;;;17.13;73.33;101537.41;6093033;19;20161;-72
2023/07/19 02:03:31;;;;;;;4.32;2.20;;;;;;;17.15;73.56;101532.88;6108015;19;20382;-72
2023/07/19 02:05:38;;;;;;;3.67;2.42;;;;;;;17.15;73.52;101527.56;6112292;19;20010;-71
2023/07/19 02:07:41;;;;;;;3.63;2.40;;;;;;;17.16;73.05;101521.31;6114669;19;20035;-71
2023/07/19 02:09:46;;;;;;;4.82;2.50;;;;;;;17.17;74.10;101523.00;6113575;19;20011;-70
2023/07/19 02:11:51;;;;;;;6.57;2.90;;;;;;;17.20;73.67;101528.16;6092552;19;20015;-70
2023/07/19 02:13:59;;;;;;;2.95;2.20;;;;;;;17.24;73.66;101519.06;6113134;19;20054;-71
2023/07/19 02:16:04;;;;;;;4.68;2.25;;;;;;;17.26;74.08;101519.84;6113521;19;20070;-71
2023/07/19 02:18:10;;;;;;;6.72;2.50;;;;;;;17.27;74.59;101516.22;6112456;19;20011;-70
2023/07/19 02:20:19;;;;;;;5.65;2.53;;;;;;;17.28;77.22;101517.94;6108183;19;20011;-72
2023/07/19 02:22:24;;;;;;;5.65;2.78;;;;;;;17.23;75.24;101514.72;6111360;19;20009;-71
2023/07/19 02:24:29;;;;;;;6.45;2.55;;;;;;;17.15;76.36;101514.28;6112699;19;20039;-71
2023/07/19 02:26:34;;;;;;;4.93;2.80;;;;;;;17.16;78.08;101513.34;6112798;19;20389;-71
2023/07/19 02:28:40;;;;;;;6.60;2.50;;;;;;;17.19;80.21;101510.50;6096653;19;20010;-71
2023/07/19 02:30:49;;;;;;;3.70;2.40;;;;;;;17.18;81.05;101517.63;6113010;19;20072;-72
2023/07/19 02:32:54;;;;;;;4.43;2.60;;;;;;;17.16;78.86;101514.19;6113222;19;20003;-70
2023/07/19 02:34:59;;;;;;;4.55;2.35;;;;;;;17.15;79.83;101514.28;6111353;19;20515;-70
2023/07/19 02:37:04;;;;;;;4.85;2.38;;;;;;;17.14;82.75;101517.88;6090882;19;20042;-72
2023/07/19 02:39:10;;;;;;;4.07;2.53;;;;;;;17.11;81.94;101516.25;6110786;19;20351;-71
2023/07/19 02:41:12;;;;;;;4.72;2.63;;;;;;;17.02;80.02;101517.63;6112565;19;20014;-71
2023/07/19 02:43:17;;;;;;;5.80;2.90;;;;;;;16.97;80.21;101529.47;6113273;19;20018;-71
2023/07/19 02:45:23;;;;;;;6.13;2.92;;;;;;;16.91;80.87;101520.06;6110811;19;20014;-70
2023/07/19 02:47:32;;;;;;;4.68;2.58;;;;;;;16.90;80.39;101518.31;6108558;19;20090;-70
2023/07/19 02:49:37;;;;;;;6.13;3.25;;;;;;;16.94;81.04;101524.34;6106533;19;20457;-71
2023/07/19 02:51:44;;;;;;;6.50;3.25;;;;;;;16.98;80.49;101516.13;6093159;19;20025;-71
2023/07/19 02:53:49;;;;;;;7.78;3.13;;;;;;;17.04;83.51;101514.91;6110408;19;20014;-72
2023/07/19 02:55:54;;;;;;;5.50;2.80;;;;;;;17.03;82.41;101510.53;6110044;19;20022;-71
2023/07/19 02:57:59;;;;;;;5.05;2.42;;;;;;;17.01;82.10;101515.94;6112374;19;20046;-71
2023/07/19 03:00:08;;;;;;;5.07;2.67;;;;;;;17.01;82.14;101509.75;6112301;19;20071;-71
2023/07/19 03:02:13;;;;;;;7.05;3.00;;;;;;;16.97;81.54;101509.06;6089289;19;20064;-71
2023/07/19 03:04:21;;;;;;;5.18;2.88;;;;;;;16.98;81.62;101509.94;6094226;19;20336;-73
2023/07/19 03:06:27;;;;;;;4.78;2.90;;;;;;;16.96;81.55;101509.19;6108565;19;20014;-73
2023/07/19 03:08:31;;;;;;;5.55;2.88;;;;;;;16.98;83.86;101516.13;6109320;19;20078;-70
2023/07/19 03:10:37;;;;;;;6.20;2.70;;;;;;;17.01;83.34;101515.94;6111905;19;20011;-71
2023/07/19 03:12:42;;;;;;;5.97;2.72;;;;;;;16.99;83.33;101511.66;6092953;19;20046;-72
2023/07/19 03:14:47;;;;;;;5.65;2.50;;;;;;;16.97;82.99;101511.72;6111909;19;20525;-72
2023/07/19 03:16:52;;;;;;;5.10;2.85;;;;;;;16.95;82.28;101512.75;6090830;19;20031;-72
2023/07/19 03:18:57;;;;;;;5.25;2.88;;;;;;;16.95;83.28;101510.94;6107131;19;20014;-71
2023/07/19 03:21:08;;;;;;;7.13;2.85;;;;;;;16.94;85.47;101509.25;6109798;19;20010;-71
2023/07/19 03:23:10;;;;;;;5.70;2.83;;;;;;;16.92;83.33;101507.63;6110371;19;20003;-71
2023/07/19 03:25:15;;;;;;;5.57;2.95;;;;;;;16.90;85.36;101507.69;6110163;19;20015;-71
2023/07/19 03:27:20;;;;;;;5.88;2.70;;;;;;;16.88;84.66;101502.50;6111248;19;20361;-71
2023/07/19 03:29:25;;;;;;;3.35;2.33;;;;;;;16.87;84.85;101497.25;6113887;19;20200;-71
2023/07/19 03:31:30;;;;;;;4.93;3.08;;;;;;;16.87;85.79;101500.75;6112512;19;20107;-71
2023/07/19 03:33:35;;;;;;;4.72;2.88;;;;;;;16.89;85.97;101511.31;6112049;19;20022;-70
2023/07/19 03:35:41;;;;;;;6.13;3.50;;;;;;;16.87;85.91;101506.06;6111427;19;20047;-72
2023/07/19 03:37:49;;;;;;;6.05;3.22;;;;;;;16.86;84.30;101501.72;6112243;19;20034;-72
2023/07/19 03:39:54;;;;;;;6.07;3.53;;;;;;;16.87;84.69;101497.25;6111363;19;19999;-71
2023/07/19 03:41:58;;;;;;;6.53;3.42;;;;;;;16.90;86.42;101489.13;6111232;19;20018;-72
2023/07/19 03:44:03;;;;;;;6.22;3.15;;;;;;;16.92;86.24;101495.19;6111583;19;20003;-71
2023/07/19 03:46:11;;;;;;;5.25;3.30;;;;;;;16.89;85.96;101509.50;6110918;19;20014;-70
2023/07/19 03:48:16;;;;;;;7.28;3.85;;;;;;;16.84;85.81;101508.91;6111316;19;20007;-71
2023/07/19 03:50:21;;;;;;;5.68;3.20;;;;;;;16.74;85.31;101510.31;6108486;19;20018;-71
2023/07/19 03:52:26;;;;;;;6.05;3.40;;;;;;;16.71;85.40;101507.00;6108818;19;20014;-72
2023/07/19 03:54:33;;;;;;;7.43;3.50;;;;;;;16.73;86.32;101505.13;6110332;19;20042;-71
2023/07/19 03:56:41;;;;;;;6.25;3.67;;;;;;;16.74;86.82;101504.16;6110885;19;20042;-72
2023/07/19 03:58:49;;;;;;;5.80;3.55;;;;;;;16.74;88.01;101501.50;6109873;19;20035;-71
2023/07/19 04:00:54;;;;;;;7.22;3.25;;;;;;;16.75;86.62;101508.56;6107955;19;20093;-72
2023/07/19 04:02:58;;;;;;;7.22;3.00;;;;;;;16.75;87.64;101513.88;6109847;19;20051;-71
2023/07/19 04:05:03;;;;;;;7.68;3.63;;;;;;;16.75;87.72;101508.56;6109015;19;20018;-70
2023/07/19 04:07:09;;;;;;;8.07;3.72;;;;;;;16.77;88.80;101501.34;6108065;19;20036;-71
2023/07/19 04:09:15;;;;;;;5.78;3.40;;;;;;;16.82;87.82;101504.63;6110801;19;20037;-70
2023/07/19 04:11:23;;;;;;;6.85;3.22;;;;;;;16.79;87.45;101497.69;6113504;19;20019;-70
2023/07/19 04:13:28;;;;;;;6.97;3.90;;;;;;;16.78;88.18;101490.69;6113285;19;20111;-71
2023/07/19 04:15:33;;;;;;;5.57;3.28;;;;;;;16.77;88.48;101490.72;6115720;19;20024;-72
2023/07/19 04:17:40;;;;;;;7.53;3.90;;;;;;;16.77;88.77;101504.91;6115626;19;20026;-71
2023/07/19 04:19:45;;;;;;;7.03;3.55;;;;;;;16.75;87.32;101504.09;6114243;19;20023;-70
2023/07/19 04:21:47;;;;;;;7.50;3.33;;;;;;;16.74;86.77;101506.81;6114222;19;20019;-71
2023/07/19 04:23:52;;;;;;;8.05;3.92;;;;;;;16.71;86.26;101504.34;6116743;19;20014;-71
2023/07/19 04:25:55;;;;;;;7.70;3.55;;;;;;;16.68;86.60;101498.25;6116901;19;20031;-71
2023/07/19 04:28:02;;;;;;;7.40;3.33;;;;;;;16.68;87.51;101506.22;6116800;19;20090;-72
2023/07/19 04:30:10;;;;;;;8.40;3.90;;;;;;;16.73;88.30;101499.81;6115447;19;20089;-72
2023/07/19 04:32:15;;;;;;;6.85;3.83;;;;;;;16.71;86.03;101499.03;6116016;19;20378;-71
2023/07/19 04:34:20;;;;;;;6.20;3.35;;;;;;;16.74;87.09;101496.19;6115039;19;20066;-71
2023/07/19 04:36:25;;;;;;;9.30;3.88;;;;;;;16.78;86.86;101501.28;6114466;19;19998;-72
2023/07/19 04:38:33;;;;;;;9.00;3.78;;;;;;;16.78;86.28;101492.47;6116464;19;20396;-73
2023/07/19 04:40:39;;;;;;;6.18;3.75;;;;;;;16.77;86.50;101494.28;6116297;19;20028;-71
2023/07/19 04:42:45;;;;;;;7.35;4.03;;;;;;;16.78;87.58;101500.44;6115630;19;20447;-71
2023/07/19 04:44:53;;;;;;;5.78;3.17;;;;;;;16.82;86.93;101504.63;6116678;19;20031;-71
2023/07/19 04:46:58;;;;;;;6.53;3.53;;;;;;;16.85;87.05;101501.78;6116169;19;20087;-71
2023/07/19 04:49:03;;;;;;;8.38;3.60;;;;;;;16.92;87.35;101505.81;6115281;19;20014;-70
2023/07/19 04:51:08;;;;;;;7.53;3.53;;;;;;;16.97;86.38;101495.78;6107052;19;20181;-70
2023/07/19 04:53:13;;;;;;;7.65;3.20;;;;;;;16.99;85.95;101498.38;6116218;19;20018;-70
2023/07/19 04:55:18;;;;;;;7.88;3.78;;;;;;;17.00;86.04;101500.94;6116953;19;20017;-70
2023/07/19 04:57:23;;;;;;;7.15;3.17;;;;;;;17.03;86.20;101500.75;6114999;19;20015;-71
2023/07/19 04:59:28;;;;;;;8.23;3.70;;;;;;;17.10;84.82;101504.78;6116589;19;20007;-70
2023/07/19 05:01:36;;;;;;;8.80;3.58;;;;;;;17.15;85.60;101503.66;6116751;19;20018;-72
2023/07/19 05:03:41;;;;;;;5.75;3.17;;;;;;;17.18;85.02;101507.00;6114323;19;20028;-72
2023/07/19 05:05:48;;;;;;;6.35;3.00;;;;;;;17.23;84.95;101506.72;6109318;19;20023;-70
2023/07/19 05:07:53;;;;;;;6.90;3.45;;;;;;;17.27;84.98;101505.59;6116033;19;20372;-70
2023/07/19 05:09:59;;;;;;;8.45;3.70;;;;;;;17.29;84.86;101499.25;6115470;19;20006;-70
2023/07/19 05:12:04;;;;;;;7.68;3.20;;;;;;;17.36;84.97;101505.06;6113823;19;20011;-72
2023/07/19 05:14:10;;;;;;;7.82;3.20;;;;;;;17.40;85.20;101506.59;6113584;19;20095;-71
2023/07/19 05:16:16;;;;;;;5.70;3.13;;;;;;;17.45;84.55;101515.16;6113576;19;20447;-72
2023/07/19 05:18:23;;;;;;;7.88;3.20;;;;;;;17.50;84.38;101502.44;6114705;19;20066;-71
2023/07/19 05:20:31;;;;;;;11.25;3.67;;;;;;;17.52;83.24;101510.34;6113664;19;20007;-72
2023/07/19 05:22:40;;;;;;;11.85;3.53;;;;;;;17.61;83.62;101509.78;6114454;19;20066;-71
2023/07/19 05:24:46;;;;;;;9.85;4.43;;;;;;;17.67;82.99;101511.25;6114097;19;20010;-71
2023/07/19 05:26:51;;;;;;;6.28;3.10;;;;;;;18.17;82.04;101510.88;6108627;19;20014;-72
2023/07/19 05:28:56;;;;;;;8.57;3.13;;;;;;;18.45;81.38;101508.28;6114276;19;20022;-72
2023/07/19 05:31:05;;;;;;;7.28;3.88;;;;;;;18.63;80.69;101504.44;6112871;19;20006;-71
2023/07/19 05:33:12;;;;;;;8.18;3.60;;;;;;;18.45;79.45;101502.97;6107491;19;20011;-70
2023/07/19 05:35:20;;;;;;;8.60;3.58;;;;;;;18.68;79.93;101504.16;6114219;19;20022;-71
2023/07/19 05:37:25;;;;;;;8.43;3.10;;;;;;;18.64;80.14;101495.50;6113021;19;20035;-71
2023/07/19 05:39:33;;;;;;;6.47;3.42;;;;;;;18.65;79.84;101497.22;6113066;19;20028;-70
2023/07/19 05:41:39;;;;;;;6.35;3.00;;;;;;;18.62;79.59;101500.09;6112958;19;20085;-71
2023/07/19 05:43:44;;;;;;;5.75;3.13;;;;;;;18.59;80.50;101500.28;6114194;19;20100;-71
2023/07/19 05:46:05;;;;;;;7.30;3.38;;;;;;;18.62;79.41;101500.09;6114830;19;20047;-71
2023/07/19 05:48:10;;;;;;;5.57;2.88;;;;;;;18.55;79.12;101501.44;6113422;19;20117;-73
2023/07/19 05:50:15;;;;;;;11.05;4.15;;;;;;;18.49;78.77;101496.50;6113338;19;20086;-72
2023/07/19 05:52:22;;;;;;;6.55;3.22;;;;;;;18.43;79.00;101497.72;6113229;19;20372;-71
2023/07/19 05:54:28;;;;;;;7.85;3.88;;;;;;;18.76;78.32;101499.22;6113393;19;20357;-72
2023/07/19 05:56:33;;;;;;;7.28;3.20;;;;;;;18.85;78.01;101494.19;6112926;19;20500;-72
2023/07/19 05:58:40;;;;;;;5.28;2.90;;;;;;;19.19;77.55;101491.09;6111589;19;20022;-72
2023/07/19 06:00:46;;;;;;;10.30;3.78;;;;;;;19.87;75.60;101503.41;6112849;19;20471;-72
2023/07/19 06:02:51;;;;;;;10.57;3.92;;;;;;;19.89;74.93;101498.81;6111929;19;20041;-72
2023/07/19 06:05:00;;;;;;;8.38;3.08;;;;;;;19.88;75.04;101510.44;6113095;19;20105;-73
2023/07/19 06:07:06;;;;;;;7.07;3.42;;;;;;;20.33;72.81;101500.19;6113356;19;20039;-69
2023/07/19 06:09:17;;;;;;;6.53;3.28;;;;;;;20.68;73.01;101497.69;6111852;19;20039;-71
2023/07/19 06:11:22;;;;;;;6.57;3.20;;;;;;;21.04;70.95;101496.78;6114290;19;20011;-72
2023/07/19 06:13:31;;;;;;;7.15;3.50;;;;;;;21.20;68.55;101493.00;6111764;19;20017;-72
2023/07/19 06:15:36;;;;;;;6.07;3.20;;;;;;;21.58;68.51;101489.25;6109819;19;20023;-70
2023/07/19 06:17:42;;;;;;;5.93;2.85;;;;;;;21.95;66.52;101486.41;6113772;19;20022;-70
2023/07/19 06:19:45;;;;;;;6.60;2.88;;;;;;;22.16;66.50;101490.06;6114414;19;20013;-71
2023/07/19 06:21:51;;;;;;;5.53;2.88;;;;;;;21.66;66.52;101489.50;6108966;19;20015;-72
2023/07/19 06:23:56;;;;;;;9.27;3.20;;;;;;;22.10;65.91;101482.53;6109714;19;20357;-73
2023/07/19 06:26:03;;;;;;;6.13;2.75;;;;;;;22.50;63.88;101488.25;6113163;19;20038;-72
2023/07/19 06:28:10;;;;;;;6.13;3.03;;;;;;;21.92;65.04;101495.50;6107814;19;20011;-71
2023/07/19 06:30:16;;;;;;;4.78;2.50;;;;;;;21.45;64.99;101490.16;6114131;19;20083;-72
2023/07/19 06:32:21;;;;;;;6.68;2.45;;;;;;;21.50;65.88;101491.66;6111999;19;20010;-71
2023/07/19 06:34:26;;;;;;;6.47;2.60;;;;;;;21.63;65.73;101485.25;6113289;19;20010;-72
2023/07/19 06:36:32;;;;;;;6.03;2.88;;;;;;;21.46;65.35;101489.22;6112880;19;20043;-71
2023/07/19 06:38:38;;;;;;;7.40;2.78;;;;;;;21.45;65.45;101492.84;6113363;19;20090;-72
2023/07/19 06:40:43;;;;;;;4.65;2.60;;;;;;;22.07;62.79;101497.00;6113471;19;20011;-72
2023/07/19 06:42:51;;;;;;;4.68;2.47;;;;;;;22.20;62.19;101490.72;6108690;19;20058;-72
2023/07/19 06:44:59;;;;;;;4.45;2.38;;;;;;;22.22;62.40;101497.66;6109806;19;20482;-73
2023/07/19 06:47:04;;;;;;;4.30;2.22;;;;;;;21.96;62.26;101496.13;6105970;19;20493;-72
2023/07/19 06:49:12;;;;;;;5.03;2.78;;;;;;;22.42;61.67;101503.22;6109236;19;20011;-71
2023/07/19 06:51:17;;;;;;;4.70;2.28;;;;;;;22.83;60.48;101502.56;6105114;19;20019;-71
2023/07/19 06:53:23;;;;;;;6.95;2.70;;;;;;;21.59;62.32;101490.94;6112161;19;20010;-72
2023/07/19 06:55:26;;;;;;;6.57;3.00;;;;;;;22.01;61.91;101494.81;6110382;19;20007;-72
2023/07/19 06:57:31;;;;;;;;;;;;;;;22.08;62.19;101492.50;6110094;19;20415;-72
2023/07/19 06:59:39;;;;;;;4.55;2.42;;;;;;;21.98;61.75;101499.53;6111753;19;19922;-72
2023/07/19 07:01:44;;;;;;;5.35;2.65;;;;;;;21.85;62.21;101503.19;6105261;19;20006;-72
2023/07/19 07:03:50;;;;;;;9.15;2.63;;;;;;;21.75;61.91;101498.63;6091362;19;20023;-73
2023/07/19 07:05:55;;;;;;;4.70;2.10;;;;;;;22.45;60.84;101505.66;6111812;19;20389;-71
2023/07/19 07:08:03;;;;;;;5.60;2.58;;;;;;;22.05;60.93;101506.13;6112033;19;20014;-71
2023/07/19 07:10:09;;;;;;;6.00;2.90;;;;;;;22.82;59.80;101502.69;6109385;19;20102;-72
2023/07/19 07:12:15;;;;;;;6.35;2.60;;;;;;;23.44;59.39;101505.53;6108552;19;20018;-72
2023/07/19 07:14:20;;;;;;;6.90;2.80;;;;;;;23.49;58.75;101499.78;6091855;19;20350;-72
2023/07/19 07:16:28;;;;;;;3.67;2.58;;;;;;;23.11;58.99;101497.63;6112041;19;20022;-72
2023/07/19 07:18:33;;;;;;;7.13;3.03;;;;;;;22.88;59.84;101500.38;6111767;19;20069;-72
2023/07/19 07:20:35;;;;;;;9.32;2.63;;;;;;;22.49;61.08;101505.31;6110972;19;20030;-72
2023/07/19 07:22:41;;;;;;;;;;;;;;;22.12;61.03;101502.00;6113473;19;20360;-73
2023/07/19 07:24:46;;;;;;;9.38;3.25;;;;;;;21.47;62.98;101504.28;6086398;19;19977;-69
2023/07/19 07:26:51;;;;;;;8.38;3.25;;;;;;;21.25;63.36;101496.16;6091857;19;20034;-69
2023/07/19 07:28:56;;;;;;;11.50;3.97;;;;;;;21.53;62.96;101502.97;6109768;19;20325;-67
2023/07/19 07:31:08;;;;;;;7.22;3.00;;;;;;;20.94;64.82;101513.63;6111198;19;20003;-71
2023/07/19 07:33:19;;;;;;;7.40;3.38;;;;;;;21.13;64.72;101513.13;6104993;19;20410;-69
2023/07/19 07:35:24;;;;;;;5.40;2.92;;;;;;;21.07;65.17;101508.22;6111250;19;20082;-68
2023/07/19 07:37:29;;;;;;;8.48;3.47;;;;;;;21.12;65.66;101503.41;6111168;19;20444;-70
2023/07/19 07:39:34;;;;;;;8.55;3.25;;;;;;;21.22;65.50;101510.63;6091825;19;20097;-69
2023/07/19 07:41:39;;;;;;;8.90;3.70;;;;;;;21.38;65.84;101502.31;6110051;19;20010;-68
2023/07/19 07:43:46;;;;;;;7.25;4.03;;;;;;;21.45;65.48;101505.38;6109553;19;20010;-69
2023/07/19 07:45:54;;;;;;;4.85;2.90;;;;;;;21.56;65.25;101510.75;6105390;19;20020;-68
2023/07/19 07:48:02;;;;;;;5.95;3.10;;;;;;;21.85;64.48;101508.53;6109484;19;20027;-68
2023/07/19 07:50:12;;;;;;;6.13;3.17;;;;;;;22.14;63.84;101513.41;6109827;19;20039;-69
2023/07/19 07:52:18;;;;;;;6.97;3.28;;;;;;;22.09;63.07;101510.25;6093295;19;20011;-71
2023/07/19 07:54:23;;;;;;;9.30;3.65;;;;;;;22.07;63.94;101506.84;6094707;19;20026;-70
2023/07/19 07:56:31;;;;;;;5.75;3.13;;;;;;;22.30;63.59;101505.03;6107959;19;20086;-69
2023/07/19 07:58:36;;;;;;;10.75;5.10;;;;;;;21.97;62.87;101509.38;6109731;19;20029;-68
2023/07/19 08:00:41;;;;;;;7.70;3.25;;;;;;;21.43;64.95;101502.84;6110364;19;20019;-70
2023/07/19 08:02:46;;;;;;;9.07;3.47;;;;;;;21.28;65.07;101503.94;6107101;19;20337;-68
2023/07/19 08:04:52;;;;;;;11.73;3.72;;;;;;;21.21;65.35;101492.84;6109721;19;20409;-69
2023/07/19 08:07:02;;;;;;;8.02;3.40;;;;;;;22.29;63.78;101501.53;6090452;19;20006;-69
2023/07/19 08:09:07;;;;;;;7.07;3.35;;;;;;;23.31;59.90;101496.81;6103574;19;20151;-69
2023/07/19 08:11:13;;;;;;;9.10;3.60;;;;;;;23.79;58.07;101493.66;6110727;19;20022;-72
2023/07/19 08:13:18;;;;;;;8.88;4.13;;;;;;;23.15;58.15;101488.38;6107813;19;20443;-72
2023/07/19 08:15:23;;;;;;;7.30;3.33;;;;;;;23.05;59.26;101487.44;6108044;19;20022;-70
2023/07/19 08:17:28;;;;;;;8.45;3.90;;;;;;;22.56;58.99;101490.44;6112120;19;20090;-68
2023/07/19 08:19:34;;;;;;;7.57;3.90;;;;;;;22.43;60.11;101489.69;6110908;19;20006;-68
2023/07/19 08:21:40;;;;;;;9.50;3.60;;;;;;;22.33;58.73;101489.59;6109766;19;20054;-68
2023/07/19 08:23:53;;;;;;;7.88;4.25;;;;;;;21.92;60.25;101490.16;6089067;19;20097;-68
2023/07/19 08:25:58;;;;;;;7.35;3.70;;;;;;;21.88;61.19;101483.34;6110573;19;20521;-68
2023/07/19 08:28:04;;;;;;;6.32;3.22;;;;;;;21.95;61.79;101481.03;6110059;19;20099;-69
2023/07/19 08:30:15;;;;;;;9.02;3.13;;;;;;;22.57;60.96;101484.09;6108137;19;20093;-68
2023/07/19 08:32:20;;;;;;;7.72;3.20;;;;;;;22.80;59.37;101484.03;6110202;19;20043;-68
2023/07/19 08:34:25;;;;;;;8.20;3.33;;;;;;;22.88;58.97;101488.75;6109905;19;20015;-69
2023/07/19 08:36:31;;;;;;;6.85;2.83;;;;;;;22.23;60.21;101496.66;6108872;19;20032;-69
2023/07/19 08:38:36;;;;;;;6.18;2.72;;;;;;;22.04;61.46;101491.03;6109270;19;20084;-70
2023/07/19 08:40:49;;;;;;;8.45;3.25;;;;;;;22.01;61.55;101492.13;6109133;19;20034;-68
2023/07/19 08:42:56;;;;;;;5.05;2.70;;;;;;;22.64;60.33;101481.75;6105993;19;20007;-69
2023/07/19 08:45:01;;;;;;;6.38;3.70;;;;;;;22.81;59.45;101484.91;6109201;19;20010;-68
2023/07/19 08:47:14;;;;;;;8.55;3.20;;;;;;;22.50;60.12;101490.06;6107028;19;20018;-69
2023/07/19 08:49:21;;;;;;;6.60;2.95;;;;;;;23.32;58.70;101489.63;6109689;19;20010;-69
2023/07/19 08:51:27;;;;;;;9.48;3.80;;;;;;;23.16;58.74;101490.06;6106981;19;20019;-69
2023/07/19 08:53:33;;;;;;;6.57;3.15;;;;;;;22.64;59.81;101475.56;6105859;19;20019;-69
2023/07/19 08:55:39;;;;;;;8.73;3.42;;;;;;;22.75;59.97;101483.59;6109302;19;20011;-70
2023/07/19 08:57:48;;;;;;;9.23;4.05;;;;;;;22.87;59.31;101485.25;6114873;19;20014;-68
2023/07/19 08:59:54;;;;;;;8.02;2.97;;;;;;;23.40;58.72;101487.13;6115980;19;20438;-68
2023/07/19 09:01:59;;;;;;;6.93;3.40;;;;;;;23.75;57.01;101489.53;6115571;19;20010;-69
2023/07/19 09:04:10;;;;;;;7.82;3.28;;;;;;;23.72;56.23;101488.94;6115520;19;20023;-71
2023/07/19 09:06:24;;;;;;;5.97;2.80;;;;;;;23.06;58.55;101489.13;6114511;19;20047;-71
2023/07/19 09:08:38;;;;;;;8.80;3.00;;;;;;;22.87;57.65;101482.56;6115232;19;20119;-71
2023/07/19 09:10:46;;;;;;;7.97;3.38;;;;;;;22.90;57.21;101492.19;6114513;19;20035;-69
2023/07/19 09:12:54;;;;;;;7.80;3.10;;;;;;;22.36;58.15;101496.53;6114479;19;20016;-70
2023/07/19 09:15:00;;;;;;;9.73;3.75;;;;;;;21.73;59.58;101495.25;6114767;19;20019;-71
2023/07/19 09:17:06;;;;;;;5.80;3.22;;;;;;;21.50;61.10;101489.84;6113729;19;20354;-70
2023/07/19 09:19:12;;;;;;;6.75;3.13;;;;;;;21.53;61.47;101499.44;6115225;19;20017;-70
2023/07/19 09:21:17;;;;;;;7.10;3.08;;;;;;;21.70;61.75;101501.69;6113260;19;20367;-72
2023/07/19 09:23:24;;;;;;;8.57;3.35;;;;;;;21.68;62.02;101491.09;6114962;19;20019;-73
2023/07/19 09:25:29;;;;;;;6.38;3.08;;;;;;;21.55;62.42;101497.50;6114436;19;20034;-73
2023/07/19 09:27:35;;;;;;;7.53;3.08;;;;;;;21.39;62.85;101503.19;6114460;19;20002;-72
2023/07/19 09:29:40;;;;;;;6.20;3.38;;;;;;;21.38;63.08;101512.16;6114273;19;20417;-74
2023/07/19 09:31:56;;;;;;;6.95;3.53;;;;;;;20.98;63.48;101510.59;6114320;19;20021;-73
2023/07/19 09:34:02;;;;;;;6.10;2.80;;;;;;;21.10;63.57;101505.31;6113345;19;20461;-74
2023/07/19 09:36:07;;;;;;;12.02;3.60;;;;;;;21.20;63.23;101509.03;6115350;19;20038;-75
2023/07/19 09:38:12;;;;;;;5.63;3.05;;;;;;;21.38;63.30;101510.34;6114060;19;20011;-73
2023/07/19 09:40:18;;;;;;;8.77;3.58;;;;;;;21.12;64.17;101509.59;6115241;19;20014;-74
2023/07/19 09:42:24;;;;;;;7.43;3.17;;;;;;;21.15;64.78;101508.50;6114030;19;20022;-74
2023/07/19 09:44:29;;;;;;;7.57;3.10;;;;;;;20.90;65.93;101521.00;6112725;19;20058;-74
2023/07/19 09:46:39;;;;;;;9.10;3.47;;;;;;;20.91;65.93;101513.84;6116101;19;20042;-73
2023/07/19 09:48:44;;;;;;;6.03;2.90;;;;;;;20.70;66.35;101513.59;6113657;19;20022;-74